Time;durP1;ratioP1;P1;durP2;ratioP2;P2;SDS_P1;SDS_P2;PMS_P1;PMS_P2;Temp;Humidity;BMP_temperature;BMP_pressure;BME280_temperature;BME280_humidity;BME280_pressure;Samples;Min_cycle;Max_cycle;Signal;HPM_P1;HPM_P2
2023/08/30 00:00:41;;;;;;;12.80;11.00;;;;;;;-145.63;55.73;39008.59;5039385;28;20025;-68
2023/08/30 00:03:08;;;;;;;13.90;11.30;;;;;;;-145.63;55.15;39034.03;5039853;28;20026;-68
2023/08/30 00:05:34;;;;;;;12.82;11.20;;;;;;;-145.63;55.09;39061.41;5035491;28;20032;-68
2023/08/30 00:07:59;;;;;;;13.05;11.52;;;;;;;-145.63;55.19;39043.81;5031107;28;20022;-68
2023/08/30 00:10:25;;;;;;;11.35;10.13;;;;;;;-145.63;55.36;39032.06;5030544;28;20068;-68
2023/08/30 00:12:51;;;;;;;14.02;11.55;;;;;;;-145.63;55.61;39049.66;5038669;28;20059;-67
2023/08/30 00:15:16;;;;;;;12.90;11.13;;;;;;;-145.63;55.35;39041.84;5038616;28;20093;-69
2023/08/30 00:17:42;;;;;;;13.52;12.02;;;;;;;-145.63;55.30;39012.50;5022924;28;20029;-68
2023/08/30 00:20:11;;;;;;;13.82;11.20;;;;;;;-145.63;55.34;39059.44;5038220;28;20257;-67
2023/08/30 00:22:37;;;;;;;13.85;11.27;;;;;;;-145.63;55.41;39020.34;5022032;28;20037;-66
2023/08/30 00:25:03;;;;;;;13.85;11.50;;;;;;;-145.63;55.59;39037.94;5042874;28;20033;-66
2023/08/30 00:27:29;;;;;;;13.85;12.32;;;;;;;-145.63;55.50;39028.16;5036908;28;20064;-67
2023/08/30 00:29:55;;;;;;;13.75;11.60;;;;;;;-145.63;55.61;39022.28;5035405;28;20258;-68
2023/08/30 00:32:21;;;;;;;13.90;12.18;;;;;;;-145.63;55.72;39051.63;5035010;28;20283;-68
2023/08/30 00:34:51;;;;;;;12.57;10.65;;;;;;;-145.63;55.64;39037.94;5034020;28;20083;-68
2023/08/30 00:37:16;;;;;;;12.95;11.48;;;;;;;-145.63;55.83;39065.31;5038407;28;20029;-67
2023/08/30 00:39:43;;;;;;;13.27;11.43;;;;;;;-145.63;55.51;39034.03;5034795;28;20072;-68
2023/08/30 00:42:09;;;;;;;12.27;10.63;;;;;;;-145.63;55.72;39037.94;5024191;28;20076;-68
2023/08/30 00:44:35;;;;;;;13.27;10.40;;;;;;;-145.63;55.53;39051.63;5043884;28;20260;-68
2023/08/30 00:47:02;;;;;;;13.68;12.02;;;;;;;-145.63;55.78;38771.97;5033328;28;20060;-68
2023/08/30 00:49:31;;;;;;;12.93;11.63;;;;;;;-145.63;55.61;39020.34;5041718;28;20092;-67
2023/08/30 00:52:00;;;;;;;14.73;13.02;;;;;;;-145.63;55.56;39090.75;5036419;28;20329;-68
2023/08/30 00:54:26;;;;;;;13.05;11.65;;;;;;;-145.63;55.43;39059.44;5037652;28;20021;-67
2023/08/30 00:56:52;;;;;;;15.45;12.18;;;;;;;-145.63;55.39;39047.72;5042142;28;20068;-68
2023/08/30 00:59:18;;;;;;;13.80;12.18;;;;;;;-145.63;55.50;39037.94;5033757;28;20026;-69
2023/08/30 01:01:45;;;;;;;11.40;10.30;;;;;;;-145.63;54.90;39020.34;5040569;28;20099;-68
2023/08/30 01:04:11;;;;;;;12.70;9.82;;;;;;;-145.63;55.10;39028.16;5034245;28;20083;-67
2023/08/30 01:06:36;;;;;;;11.60;10.40;;;;;;;-145.63;54.89;39045.75;5037940;28;20033;-67
2023/08/30 01:09:03;;;;;;;13.98;11.60;;;;;;;-145.63;54.95;39067.28;5043825;28;20029;-69
2023/08/30 01:11:47;;;;;;;11.98;10.45;;;;;;;-145.63;55.41;38996.88;5034182;28;20021;-69
2023/08/30 01:14:18;;;;;;;11.98;10.80;;;;;;;-145.63;55.12;38603.81;5039710;28;20025;-68
2023/08/30 01:16:44;;;;;;;12.63;11.20;;;;;;;-145.63;55.34;39030.13;5031165;28;20022;-67
2023/08/30 01:19:22;;;;;;;12.55;10.63;;;;;;;-145.63;55.22;39030.13;5034834;28;20310;-68
2023/08/30 01:21:56;;;;;;;12.40;10.73;;;;;;;-145.63;55.26;39034.03;5027704;28;20034;-67
2023/08/30 01:24:45;;;;;;;13.63;12.27;;;;;;;-145.63;55.22;39051.63;5020403;28;20251;-67
2023/08/30 01:27:12;;;;;;;13.88;12.38;;;;;;;-145.63;55.15;39018.38;5012751;28;20384;-68
2023/08/30 01:29:43;;;;;;;11.93;10.73;;;;;;;-145.63;55.36;38560.78;5032914;28;20089;-68
2023/08/30 01:32:09;;;;;;;13.35;10.95;;;;;;;-145.63;55.06;39061.41;5030525;28;20049;-67
2023/08/30 01:34:39;;;;;;;12.93;11.50;;;;;;;-145.63;55.10;39063.34;5034783;28;20025;-68
2023/08/30 01:37:10;;;;;;;12.07;10.82;;;;;;;-145.63;55.53;39102.47;5019776;28;20301;-69
2023/08/30 01:39:41;;;;;;;11.82;10.40;;;;;;;-145.63;55.57;39110.28;5038781;28;20337;-69
2023/08/30 01:42:09;;;;;;;11.30;9.95;;;;;;;-145.63;55.15;39043.81;5034812;28;20033;-67
2023/08/30 01:44:35;;;;;;;10.48;9.38;;;;;;;-145.63;55.20;39034.03;5040521;28;20029;-68
2023/08/30 01:47:02;;;;;;;12.60;10.32;;;;;;;-145.63;55.32;39075.09;5029284;28;20045;-68
2023/08/30 01:49:32;;;;;;;10.65;9.60;;;;;;;-145.63;55.27;39041.84;5037734;28;20108;-68
2023/08/30 01:51:58;;;;;;;10.48;9.43;;;;;;;-145.63;55.15;39061.41;5035480;28;20045;-68
2023/08/30 01:54:26;;;;;;;10.38;9.18;;;;;;;-145.63;55.19;39161.13;5033350;28;20097;-69
2023/08/30 01:56:52;;;;;;;9.57;8.57;;;;;;;-145.63;54.95;39084.88;5041611;28;20088;-67
2023/08/30 01:59:17;;;;;;;8.90;8.00;;;;;;;-145.63;55.16;39053.59;5028996;28;20080;-67
2023/08/30 02:01:43;;;;;;;9.52;8.52;;;;;;;-145.63;55.46;39055.53;5036907;28;20076;-67
2023/08/30 02:04:09;;;;;;;11.15;8.30;;;;;;;-145.63;55.15;39059.44;5034650;28;20021;-68
2023/08/30 02:06:47;;;;;;;8.70;7.63;;;;;;;-145.63;54.82;39043.81;5033374;28;20029;-67
2023/08/30 02:09:24;;;;;;;8.95;8.07;;;;;;;-145.63;54.96;39055.53;5041051;28;20030;-67
2023/08/30 02:11:52;;;;;;;9.45;8.55;;;;;;;-145.63;54.59;39059.44;5032488;28;20032;-68
2023/08/30 02:14:20;;;;;;;11.45;8.18;;;;;;;-145.63;54.44;39059.44;5027824;28;20238;-67
2023/08/30 02:16:47;;;;;;;7.90;7.18;;;;;;;-145.63;54.70;39063.34;5044123;28;20029;-68
2023/08/30 02:19:20;;;;;;;8.90;8.00;;;;;;;-145.63;54.38;39059.44;5033573;28;21109;-69
2023/08/30 02:21:46;;;;;;;8.73;7.85;;;;;;;-145.63;54.84;39067.28;5030283;28;20113;-67
2023/08/30 02:24:12;;;;;;;8.05;7.25;;;;;;;-145.63;54.55;39055.53;5033776;28;20041;-69
2023/08/30 02:26:37;;;;;;;9.13;8.23;;;;;;;-145.63;54.76;39075.09;5043175;28;20025;-69
2023/08/30 02:29:03;;;;;;;12.15;10.35;;;;;;;-145.63;54.58;39043.81;5031557;28;20064;-68
2023/08/30 02:31:29;;;;;;;8.93;8.00;;;;;;;-145.63;54.54;39067.28;5027400;28;20044;-68
2023/08/30 02:33:55;;;;;;;9.60;8.60;;;;;;;-145.63;54.46;39030.13;5034776;28;20324;-68
2023/08/30 02:36:20;;;;;;;8.63;7.82;;;;;;;-145.63;54.09;39030.13;5030144;28;20022;-69
2023/08/30 02:38:46;;;;;;;7.75;6.95;;;;;;;-145.63;54.25;39077.06;5038321;28;20040;-68
2023/08/30 02:41:12;;;;;;;8.40;6.90;;;;;;;-145.63;54.01;39039.88;5035550;28;20045;-67
2023/08/30 02:43:38;;;;;;;9.00;8.00;;;;;;;-145.63;54.14;39049.66;5028560;28;20029;-68
2023/08/30 02:46:05;;;;;;;7.50;6.70;;;;;;;-145.63;53.88;39077.06;5042342;28;20203;-67
2023/08/30 02:48:31;;;;;;;9.63;7.40;;;;;;;-145.63;53.84;39075.09;5038714;28;20037;-66
2023/08/30 02:50:57;;;;;;;8.98;7.65;;;;;;;-145.63;54.09;39063.34;5038418;28;20215;-67
2023/08/30 02:53:23;;;;;;;8.07;7.28;;;;;;;-145.63;53.81;39092.69;5041973;28;20032;-67
2023/08/30 02:55:49;;;;;;;8.45;7.30;;;;;;;-145.63;53.80;39055.53;5033285;28;20029;-66
2023/08/30 02:58:14;;;;;;;8.20;7.38;;;;;;;-145.63;53.90;39061.41;5041577;28;20025;-66
2023/08/30 03:00:40;;;;;;;7.35;6.63;;;;;;;-145.63;54.16;39006.66;5032681;28;20030;-67
2023/08/30 03:03:06;;;;;;;8.38;7.47;;;;;;;-145.63;53.94;39067.28;5033817;28;20097;-67
2023/08/30 03:05:32;;;;;;;8.32;6.82;;;;;;;-145.63;54.35;39086.81;5041967;28;20059;-68
2023/08/30 03:07:57;;;;;;;8.23;7.45;;;;;;;-145.63;54.24;39061.41;5032498;28;20021;-68
2023/08/30 03:10:24;;;;;;;9.15;8.25;;;;;;;-145.63;53.65;39080.97;5040822;28;20036;-66
2023/08/30 03:12:50;;;;;;;8.50;7.60;;;;;;;-145.63;53.77;39075.09;5036145;28;20042;-67
2023/08/30 03:15:15;;;;;;;9.52;7.30;;;;;;;-145.63;53.67;39063.34;5023629;28;20213;-67
2023/08/30 03:17:41;;;;;;;8.45;7.55;;;;;;;-145.63;53.82;39077.06;5042929;28;20028;-66
2023/08/30 03:20:07;;;;;;;7.68;6.85;;;;;;;-145.63;53.97;39080.97;5032121;28;20032;-67
2023/08/30 03:22:33;;;;;;;11.70;8.07;;;;;;;-145.63;53.99;39055.53;5027107;28;20106;-67
2023/08/30 03:24:59;;;;;;;9.25;7.90;;;;;;;-145.63;53.56;39059.44;5028484;28;20034;-65
2023/08/30 03:27:25;;;;;;;11.07;7.85;;;;;;;-145.63;53.50;39106.38;5036573;28;20021;-66
2023/08/30 03:29:50;;;;;;;9.52;8.50;;;;;;;-145.63;53.88;39071.19;5027535;28;20045;-66
2023/08/30 03:32:18;;;;;;;9.55;7.93;;;;;;;-145.63;53.83;39073.13;5028997;28;20102;-67
2023/08/30 03:34:45;;;;;;;9.80;8.07;;;;;;;-145.63;53.98;39051.63;5024164;28;20036;-67
2023/08/30 03:37:11;;;;;;;8.75;7.47;;;;;;;-145.63;53.41;39055.53;5029518;28;20321;-69
2023/08/30 03:39:37;;;;;;;9.65;8.65;;;;;;;-145.63;53.86;39092.69;5021325;28;20270;-69
2023/08/30 03:42:03;;;;;;;8.10;7.13;;;;;;;-145.63;53.49;39071.19;5030407;28;20021;-69
2023/08/30 03:44:29;;;;;;;8.55;5.95;;;;;;;-145.63;53.32;39094.66;5023541;28;20025;-68
2023/08/30 03:46:56;;;;;;;7.43;6.72;;;;;;;-145.63;53.38;39075.09;5022039;28;20025;-68
2023/08/30 03:49:22;;;;;;;7.78;6.25;;;;;;;-145.63;52.99;39106.38;5021920;28;20318;-68
2023/08/30 03:51:48;;;;;;;7.07;6.38;;;;;;;-145.63;52.59;39094.66;5035085;28;20030;-68
2023/08/30 03:54:16;;;;;;;7.22;6.35;;;;;;;-145.63;52.90;39055.53;5026946;28;20052;-68
2023/08/30 03:56:42;;;;;;;6.57;5.88;;;;;;;-145.63;52.81;39079.00;5032660;28;20253;-69
2023/08/30 03:59:08;;;;;;;7.30;6.53;;;;;;;-145.63;52.88;39079.00;5038319;28;20321;-69
2023/08/30 04:01:33;;;;;;;8.45;6.82;;;;;;;-145.63;53.10;39116.16;5036203;28;20029;-67
2023/08/30 04:03:59;;;;;;;7.90;6.43;;;;;;;-145.63;52.87;39106.38;5030539;28;20076;-68
2023/08/30 04:06:25;;;;;;;7.88;6.63;;;;;;;-145.63;52.96;39090.75;5026518;28;20034;-68
2023/08/30 04:08:50;;;;;;;7.07;6.38;;;;;;;-145.63;52.90;39102.47;5025817;28;20030;-67
2023/08/30 04:11:16;;;;;;;6.93;5.95;;;;;;;-145.63;52.77;39084.88;5037637;28;20040;-68
2023/08/30 04:13:42;;;;;;;6.35;5.75;;;;;;;-145.63;52.65;39055.53;5028874;28;20048;-68
2023/08/30 04:16:07;;;;;;;7.35;6.30;;;;;;;-145.63;52.65;39094.66;5037161;28;20026;-68
2023/08/30 04:18:33;;;;;;;5.80;5.30;;;;;;;-145.63;52.25;39094.66;5041388;28;20222;-69
2023/08/30 04:20:59;;;;;;;6.45;5.55;;;;;;;-145.63;52.42;39092.69;5037425;28;20096;-69
2023/08/30 04:23:24;;;;;;;7.13;5.60;;;;;;;-145.63;52.77;39192.44;5028181;28;20054;-69
2023/08/30 04:25:50;;;;;;;7.03;6.22;;;;;;;-145.63;52.50;39110.28;5029528;28;20032;-68
2023/08/30 04:28:16;;;;;;;6.22;5.13;;;;;;;-145.63;52.69;39075.09;5040436;28;20017;-67
2023/08/30 04:30:41;;;;;;;6.13;5.53;;;;;;;-145.63;52.90;39057.50;5041872;28;20030;-67
2023/08/30 04:33:07;;;;;;;8.07;6.72;;;;;;;-145.63;52.50;39084.88;5037558;28;20032;-65
2023/08/30 04:35:33;;;;;;;7.03;5.50;;;;;;;-145.63;52.74;39098.56;5043623;28;20032;-64
2023/08/30 04:37:59;;;;;;;8.77;6.43;;;;;;;-145.63;52.79;39127.91;5045663;28;20033;-64
2023/08/30 04:40:25;;;;;;;6.20;5.60;;;;;;;-145.63;52.86;39094.66;5042962;28;20017;-65
2023/08/30 04:42:51;;;;;;;7.93;5.65;;;;;;;-145.63;52.59;39067.28;5027785;28;20026;-65
2023/08/30 04:45:17;;;;;;;6.10;4.78;;;;;;;-145.63;52.45;39106.38;5035940;28;20021;-64
2023/08/30 04:47:45;;;;;;;5.43;4.63;;;;;;;-145.63;52.91;39082.91;5025880;28;20036;-64
2023/08/30 04:50:11;;;;;;;5.47;4.97;;;;;;;-145.63;52.02;39075.09;5029334;28;20096;-65
2023/08/30 04:52:37;;;;;;;5.70;5.10;;;;;;;-145.63;52.11;39088.78;5038811;28;20270;-65
2023/08/30 04:55:03;;;;;;;6.63;4.85;;;;;;;-145.63;51.92;39104.44;5036540;28;20075;-65
2023/08/30 04:57:31;;;;;;;5.72;4.60;;;;;;;-145.63;51.98;39098.56;5034408;28;20049;-65
2023/08/30 04:59:57;;;;;;;4.93;4.45;;;;;;;-145.63;51.89;39080.97;5042197;28;20041;-66
2023/08/30 05:02:22;;;;;;;4.53;4.13;;;;;;;-145.63;51.55;39112.25;5031785;28;20033;-66
2023/08/30 05:04:48;;;;;;;5.68;4.93;;;;;;;-145.63;51.83;39082.91;5036944;28;20227;-65
2023/08/30 05:07:14;;;;;;;5.78;4.72;;;;;;;-145.63;51.63;39082.91;5031585;28;20040;-65
2023/08/30 05:09:40;;;;;;;4.50;3.95;;;;;;;-145.63;52.29;39082.91;5028229;28;20029;-65
2023/08/30 05:12:07;;;;;;;5.38;4.57;;;;;;;-145.63;52.02;39059.44;5025066;28;20076;-66
2023/08/30 05:14:32;;;;;;;7.47;5.03;;;;;;;-145.63;51.68;39094.66;5029623;28;20344;-65
2023/08/30 05:16:58;;;;;;;7.70;5.45;;;;;;;-145.63;51.70;39063.34;5041862;28;20037;-66
2023/08/30 05:19:23;;;;;;;8.18;5.45;;;;;;;-145.63;51.66;39069.22;5033798;28;20389;-66
2023/08/30 05:21:54;;;;;;;6.72;5.25;;;;;;;-145.63;51.85;39082.91;5033183;28;20036;-66
2023/08/30 05:24:21;;;;;;;5.00;4.32;;;;;;;-145.63;51.69;39120.06;5041722;28;20329;-67
2023/08/30 05:26:48;;;;;;;6.00;5.03;;;;;;;-145.63;51.69;39094.66;5044952;28;20035;-66
2023/08/30 05:29:15;;;;;;;5.28;4.53;;;;;;;-145.63;51.46;39063.34;5035691;28;20317;-67
2023/08/30 05:31:41;;;;;;;9.82;5.05;;;;;;;-145.63;51.48;39057.50;5042913;28;20025;-65
2023/08/30 05:34:07;;;;;;;5.30;4.53;;;;;;;-145.63;51.33;39063.34;5031355;28;20383;-65
2023/08/30 05:36:32;;;;;;;6.30;4.82;;;;;;;-145.63;51.56;39106.38;5028717;28;20037;-66
2023/08/30 05:38:58;;;;;;;5.95;5.13;;;;;;;-145.63;51.32;39090.75;5031330;28;20033;-67
2023/08/30 05:41:24;;;;;;;8.38;6.57;;;;;;;-145.63;51.79;39082.91;5028236;28;20249;-66
2023/08/30 05:43:51;;;;;;;6.75;6.03;;;;;;;-145.63;51.87;39094.66;5041273;28;20087;-67
2023/08/30 05:46:16;;;;;;;19.95;15.90;;;;;;;-145.63;52.16;39071.19;5035722;28;20030;-67
2023/08/30 05:48:42;;;;;;;7.18;5.50;;;;;;;-145.63;52.56;39084.88;5039031;28;20033;-67
2023/08/30 05:51:08;;;;;;;6.68;5.15;;;;;;;-145.63;51.99;39075.09;5024476;28;20029;-66
2023/08/30 05:53:34;;;;;;;6.07;5.47;;;;;;;-145.63;51.91;39039.88;5035965;28;20342;-68
2023/08/30 05:55:59;;;;;;;6.30;5.70;;;;;;;-145.63;51.72;39094.66;5034149;28;20034;-66
2023/08/30 05:58:25;;;;;;;7.03;5.38;;;;;;;-145.63;51.79;39114.22;5029072;28;20030;-67
2023/08/30 06:00:51;;;;;;;10.68;5.90;;;;;;;-145.63;51.79;39051.63;5040067;28;20029;-67
2023/08/30 06:03:16;;;;;;;6.03;5.53;;;;;;;-145.63;51.89;39094.66;5026138;28;20248;-68
2023/08/30 06:05:42;;;;;;;7.70;6.75;;;;;;;-145.63;51.72;39053.59;5041992;28;20057;-67
2023/08/30 06:08:09;;;;;;;6.88;5.95;;;;;;;-145.63;51.52;39055.53;5027338;28;20034;-67
2023/08/30 06:10:36;;;;;;;7.55;6.13;;;;;;;-145.63;51.84;39065.31;5030691;28;20040;-66
2023/08/30 06:13:04;;;;;;;8.95;7.50;;;;;;;-145.63;51.20;39077.06;5040923;28;20025;-64
2023/08/30 06:15:30;;;;;;;7.30;5.38;;;;;;;-145.63;51.50;39059.44;5035262;28;20026;-66
2023/08/30 06:17:56;;;;;;;6.90;6.25;;;;;;;-145.63;51.35;39039.88;5022974;28;20045;-65
2023/08/30 06:20:22;;;;;;;218.20;22.80;;;;;;;-145.63;51.25;39065.31;5055101;28;20033;-66
2023/08/30 06:22:47;;;;;;;49.17;10.55;;;;;;;-145.63;50.91;39043.81;5022037;28;20053;-66
2023/08/30 06:25:13;;;;;;;7.50;6.78;;;;;;;-145.63;51.10;39088.78;5028973;28;20337;-65
2023/08/30 06:27:56;;;;;;;7.57;6.32;;;;;;;-145.63;51.16;39106.38;5025200;28;20025;-65
2023/08/30 06:30:22;;;;;;;7.65;6.85;;;;;;;-145.63;51.26;39055.53;5029451;28;20314;-65
2023/08/30 06:32:49;;;;;;;7.80;6.90;;;;;;;-145.63;50.97;39051.63;5021277;28;20094;-66
2023/08/30 06:35:15;;;;;;;7.05;6.35;;;;;;;-145.63;50.72;39055.53;5020683;28;20052;-66
2023/08/30 06:37:40;;;;;;;6.75;6.05;;;;;;;-145.63;51.37;39030.13;5018420;28;20022;-67
2023/08/30 06:40:07;;;;;;;12.60;6.60;;;;;;;-145.63;51.14;39010.56;5017979;28;20026;-67
2023/08/30 06:42:32;;;;;;;7.45;6.43;;;;;;;-145.63;50.57;38994.91;5019288;28;20034;-65
2023/08/30 06:44:58;;;;;;;8.75;7.85;;;;;;;-145.63;51.10;39051.63;5018415;28;20310;-66
2023/08/30 06:47:24;;;;;;;7.63;6.80;;;;;;;-145.63;50.78;39034.03;5026014;28;20033;-66
2023/08/30 06:49:49;;;;;;;6.65;5.97;;;;;;;-145.63;50.95;39053.59;5035835;28;20083;-66
2023/08/30 06:52:15;;;;;;;6.90;6.20;;;;;;;-145.63;50.76;38103.25;5034883;28;20030;-65
2023/08/30 06:54:40;;;;;;;8.45;6.00;;;;;;;-145.63;51.33;39098.56;5031904;28;20017;-65
2023/08/30 06:57:06;;;;;;;6.05;5.45;;;;;;;-145.63;51.26;39080.97;5026162;28;20030;-65
2023/08/30 06:59:33;;;;;;;11.40;6.18;;;;;;;-145.63;51.94;39098.56;5022561;28;20071;-65
2023/08/30 07:01:58;;;;;;;6.28;5.65;;;;;;;-145.63;50.72;39047.72;5024238;28;20017;-66
2023/08/30 07:04:24;;;;;;;8.00;5.45;;;;;;;-145.63;51.21;39043.81;5024621;28;20048;-65
2023/08/30 07:06:51;;;;;;;6.63;5.55;;;;;;;-145.63;51.17;39043.81;5020017;28;20021;-65
2023/08/30 07:09:17;;;;;;;6.07;5.47;;;;;;;-145.63;51.10;39018.38;5017404;28;20018;-65
2023/08/30 07:11:47;;;;;;;9.90;5.85;;;;;;;-145.63;51.22;39032.06;5018351;28;20030;-66
2023/08/30 07:14:14;;;;;;;6.13;5.10;;;;;;;-145.63;49.84;39063.34;5018236;28;20026;-65
2023/08/30 07:16:40;;;;;;;4.50;4.10;;;;;;;-145.63;50.24;39039.88;5022312;28;20303;-66
2023/08/30 07:19:06;;;;;;;5.70;4.85;;;;;;;-145.63;50.21;38991.00;5022459;28;20038;-65
2023/08/30 07:21:32;;;;;;;5.35;4.75;;;;;;;-145.63;49.57;39022.28;5017086;28;20214;-65
2023/08/30 07:23:58;;;;;;;6.78;4.97;;;;;;;-145.63;49.95;39086.81;5019381;28;20297;-65
2023/08/30 07:26:24;;;;;;;8.05;4.63;;;;;;;-145.63;50.16;39024.25;5025291;28;20034;-65
2023/08/30 07:28:49;;;;;;;12.30;4.85;;;;;;;-145.63;50.05;39000.78;5017714;28;20049;-65
2023/08/30 07:31:18;;;;;;;5.45;4.95;;;;;;;-145.63;50.35;39028.16;5017130;28;20804;-65
2023/08/30 07:33:44;;;;;;;7.65;5.35;;;;;;;-145.63;50.41;39020.34;5028240;28;20360;-66
2023/08/30 07:36:11;;;;;;;7.45;5.15;;;;;;;-145.63;50.44;39059.44;5020237;28;20034;-65
2023/08/30 07:38:37;;;;;;;5.60;5.00;;;;;;;-145.63;50.68;39026.19;5036837;28;20045;-65
2023/08/30 07:41:02;;;;;;;5.40;4.90;;;;;;;-145.63;51.08;39059.44;5028321;28;20040;-66
2023/08/30 07:43:28;;;;;;;7.25;5.22;;;;;;;-145.63;50.89;39041.84;5029722;28;20052;-66
2023/08/30 07:45:54;;;;;;;6.22;5.28;;;;;;;-145.63;51.54;39080.97;5032415;28;20249;-65
2023/08/30 07:48:19;;;;;;;6.85;4.85;;;;;;;-145.63;51.47;39063.34;5040179;28;20041;-67
2023/08/30 07:50:45;;;;;;;6.70;5.20;;;;;;;-145.63;51.34;39057.50;5027923;28;20025;-64
2023/08/30 07:53:12;;;;;;;6.22;4.78;;;;;;;-145.63;51.22;39071.19;5037866;28;20044;-64
2023/08/30 07:55:38;;;;;;;4.80;4.40;;;;;;;-145.63;51.35;39047.72;5029982;28;20033;-65
2023/08/30 07:58:03;;;;;;;5.65;4.85;;;;;;;-145.63;51.22;39041.84;5034994;28;20041;-66
2023/08/30 08:00:29;;;;;;;5.72;4.40;;;;;;;-145.63;50.95;39061.41;5032357;28;20344;-65
2023/08/30 08:02:55;;;;;;;5.13;4.63;;;;;;;-145.63;51.33;39067.28;5045632;28;20168;-65
2023/08/30 08:05:21;;;;;;;6.50;4.53;;;;;;;-145.63;50.55;39039.88;5035663;28;20060;-65
2023/08/30 08:07:53;;;;;;;4.45;3.95;;;;;;;-145.63;50.38;39067.28;5043728;28;20229;-65
2023/08/30 08:10:19;;;;;;;4.93;4.40;;;;;;;-145.63;50.33;38992.97;5038022;28;20089;-66
2023/08/30 08:12:45;;;;;;;5.20;4.22;;;;;;;-145.63;49.78;38928.44;5021023;28;20033;-66
2023/08/30 08:15:11;;;;;;;4.30;3.35;;;;;;;-145.63;49.46;38975.34;5024114;28;20026;-65
2023/08/30 08:17:37;;;;;;;5.63;4.15;;;;;;;-145.63;49.23;38928.44;5028514;28;20191;-66
2023/08/30 08:20:05;;;;;;;3.63;3.22;;;;;;;-145.63;49.00;38897.13;5023554;28;20069;-65
2023/08/30 08:22:31;;;;;;;5.03;3.00;;;;;;;-145.63;49.14;38906.91;5023719;28;20022;-65
2023/08/30 08:24:57;;;;;;;3.10;2.80;;;;;;;-145.63;48.03;38940.16;5026702;28;20210;-66
2023/08/30 08:27:25;;;;;;;5.43;2.70;;;;;;;-145.63;46.50;38922.56;5022507;28;20018;-66
2023/08/30 08:29:50;;;;;;;4.55;3.05;;;;;;;-145.63;47.17;38985.13;5024277;28;20206;-65
2023/08/30 08:32:16;;;;;;;3.78;3.15;;;;;;;-145.63;46.99;38949.94;5029021;28;20026;-66
2023/08/30 08:34:42;;;;;;;3.15;2.85;;;;;;;-145.63;47.07;38940.16;5028588;28;20025;-67
2023/08/30 08:37:08;;;;;;;6.10;4.45;;;;;;;-145.63;47.67;38955.81;5028073;28;20025;-65
2023/08/30 08:39:34;;;;;;;6.25;3.78;;;;;;;-145.63;47.65;38930.38;5025004;28;20032;-67
2023/08/30 08:42:00;;;;;;;2.83;2.63;;;;;;;-145.63;46.98;38736.78;5020153;28;20332;-65
2023/08/30 08:44:30;;;;;;;2.33;2.13;;;;;;;-145.63;47.26;38926.47;5026741;28;20028;-64
2023/08/30 08:46:57;;;;;;;4.40;2.50;;;;;;;-145.63;47.12;38856.06;5022797;28;20101;-67
2023/08/30 08:49:28;;;;;;;3.78;3.08;;;;;;;-145.63;45.50;38858.03;5025035;28;20049;-66
2023/08/30 08:51:54;;;;;;;3.13;2.45;;;;;;;-145.63;45.86;38850.19;5024487;28;20029;-66
2023/08/30 08:54:20;;;;;;;3.25;2.95;;;;;;;-145.63;46.26;38881.50;5027202;28;20033;-65
2023/08/30 08:56:46;;;;;;;2.83;2.40;;;;;;;-145.63;45.93;38818.91;5023328;28;20052;-66
2023/08/30 08:59:12;;;;;;;5.05;2.50;;;;;;;-145.63;45.64;38879.53;5024905;28;20260;-65
2023/08/30 09:01:41;;;;;;;3.95;3.05;;;;;;;-145.63;45.31;38867.81;5018706;28;20026;-66
2023/08/30 09:04:11;;;;;;;5.28;3.00;;;;;;;-145.63;44.98;38832.59;5024234;28;20033;-66
2023/08/30 09:06:39;;;;;;;3.05;2.50;;;;;;;-145.63;46.00;38858.03;5021151;28;20029;-66
2023/08/30 09:09:06;;;;;;;5.65;2.72;;;;;;;-145.63;46.09;38914.72;5021419;28;20258;-65
2023/08/30 09:11:32;;;;;;;5.88;2.67;;;;;;;-145.63;45.92;38871.72;5019173;28;20329;-65
2023/08/30 09:13:58;;;;;;;2.85;2.50;;;;;;;-145.63;45.68;38883.44;5026947;28;20064;-65
2023/08/30 09:16:24;;;;;;;3.60;2.70;;;;;;;-145.63;45.70;38895.19;5024717;28;20022;-66
2023/08/30 09:19:00;;;;;;;2.72;2.53;;;;;;;-145.63;44.96;38877.56;5018309;28;20030;-65
2023/08/30 09:21:26;;;;;;;2.78;2.30;;;;;;;-145.63;45.23;38822.81;5021530;28;20021;-66
2023/08/30 09:24:02;;;;;;;2.60;2.33;;;;;;;-145.63;43.69;38771.97;5021680;28;20049;-65
2023/08/30 09:26:35;;;;;;;3.97;2.83;;;;;;;-145.63;43.11;38770.03;5029350;28;20033;-65
2023/08/30 09:29:05;;;;;;;4.78;2.90;;;;;;;-145.63;43.78;38785.66;5037874;28;20096;-65
2023/08/30 09:31:40;;;;;;;4.07;2.65;;;;;;;-145.63;43.17;38770.03;5023199;28;20080;-65
2023/08/30 09:34:06;;;;;;;3.05;2.78;;;;;;;-145.63;43.47;38758.28;5023992;28;20101;-66
2023/08/30 09:36:42;;;;;;;2.60;2.40;;;;;;;-145.63;43.38;38803.28;5022691;28;20093;-66
2023/08/30 09:39:12;;;;;;;2.60;2.38;;;;;;;-145.63;43.45;38820.88;5038755;28;20049;-66
2023/08/30 09:41:47;;;;;;;3.08;2.60;;;;;;;-145.63;43.60;38789.59;5025499;28;20044;-64
2023/08/30 09:44:14;;;;;;;3.30;2.60;;;;;;;-145.63;43.72;38805.22;5025157;28;20037;-65
2023/08/30 09:46:44;;;;;;;4.32;3.05;;;;;;;-145.63;43.85;38949.94;5026740;28;20104;-65
2023/08/30 09:49:11;;;;;;;3.65;2.72;;;;;;;-145.63;43.47;38801.31;5022665;28;20053;-65
2023/08/30 09:51:42;;;;;;;4.10;3.00;;;;;;;-145.63;43.26;38838.47;5023205;28;20029;-66
2023/08/30 09:54:18;;;;;;;3.08;2.78;;;;;;;-145.63;44.05;38848.25;5022152;28;20306;-65
2023/08/30 09:56:46;;;;;;;3.17;2.60;;;;;;;-145.63;43.89;38842.38;5020937;28;20025;-66
2023/08/30 09:59:14;;;;;;;3.33;2.42;;;;;;;-145.63;44.05;38801.31;5024594;28;20072;-65
2023/08/30 10:01:41;;;;;;;4.57;2.60;;;;;;;-145.63;43.96;38828.69;5026850;28;20033;-64
2023/08/30 10:04:08;;;;;;;2.95;2.60;;;;;;;-145.63;43.39;38775.91;5035888;28;20057;-65
2023/08/30 10:06:35;;;;;;;3.47;3.17;;;;;;;-145.63;43.15;38748.50;5030285;28;20033;-66
2023/08/30 10:09:03;;;;;;;4.22;2.55;;;;;;;-145.63;43.00;38779.81;5025986;28;20048;-64
2023/08/30 10:11:29;;;;;;;2.67;2.47;;;;;;;-145.63;43.83;38734.81;5020209;28;20030;-64
2023/08/30 10:13:55;;;;;;;4.00;2.75;;;;;;;-145.63;42.96;38746.56;5019816;28;20651;-66
2023/08/30 10:16:24;;;;;;;3.00;2.70;;;;;;;-145.63;43.57;38768.06;5017180;28;20018;-66
2023/08/30 10:18:54;;;;;;;6.20;3.53;;;;;;;-145.63;43.59;38762.22;5019496;28;20032;-67
2023/08/30 10:21:21;;;;;;;23.15;5.18;;;;;;;-145.63;43.85;38773.94;5018423;28;20270;-65
2023/08/30 10:23:51;;;;;;;6.60;3.88;;;;;;;-145.63;43.79;38762.22;5019412;28;20235;-66
2023/08/30 10:26:18;;;;;;;5.65;2.70;;;;;;;-145.63;42.60;38725.06;5023484;28;20028;-65
2023/08/30 10:28:47;;;;;;;7.35;3.20;;;;;;;-145.63;42.22;38771.97;5023578;28;20025;-65
2023/08/30 10:31:13;;;;;;;3.88;2.75;;;;;;;-145.63;42.94;38773.94;5016655;28;20105;-65
2023/08/30 10:34:19;;;;;;;5.63;2.50;;;;;;;-145.63;43.42;38740.69;5029485;28;20090;-65
2023/08/30 10:36:45;;;;;;;3.55;2.85;;;;;;;-145.63;42.37;38535.38;5009520;28;20037;-66
2023/08/30 10:39:12;;;;;;;6.35;3.80;;;;;;;-145.63;43.74;38742.66;5025449;28;20073;-66
2023/08/30 10:41:38;;;;;;;3.30;3.00;;;;;;;-145.63;43.66;38746.56;5018467;28;20037;-65
2023/08/30 10:44:04;;;;;;;7.20;3.00;;;;;;;-145.63;42.70;38789.59;5017432;28;20363;-65
2023/08/30 10:46:31;;;;;;;2.80;2.60;;;;;;;-145.63;42.49;38756.34;5013905;28;20017;-65
2023/08/30 10:49:14;;;;;;;3.22;2.92;;;;;;;-145.63;42.25;38715.28;5015318;28;20085;-65
2023/08/30 10:51:41;;;;;;;3.58;2.92;;;;;;;-145.63;42.51;38691.81;5015389;28;20050;-64
2023/08/30 10:54:17;;;;;;;5.72;3.50;;;;;;;-145.63;42.75;38734.81;5014325;28;20022;-65
2023/08/30 10:57:02;;;;;;;5.40;3.10;;;;;;;-145.63;41.35;38699.63;5014974;28;20029;-64
2023/08/30 10:59:29;;;;;;;4.40;3.00;;;;;;;-145.63;41.00;38736.78;5025346;28;20298;-64
2023/08/30 11:01:56;;;;;;;3.38;2.63;;;;;;;-145.63;41.57;38717.22;5023904;28;20022;-65
2023/08/30 11:04:22;;;;;;;3.42;2.83;;;;;;;-145.63;41.82;38705.50;5019151;28;20089;-65
2023/08/30 11:06:50;;;;;;;3.65;3.00;;;;;;;-145.63;42.02;38703.53;5016062;28;20164;-65
2023/08/30 11:09:18;;;;;;;5.38;3.22;;;;;;;-145.63;42.09;38750.47;5015771;28;20033;-65
2023/08/30 11:11:45;;;;;;;3.72;2.90;;;;;;;-145.63;41.95;38652.69;5021032;28;20036;-65
2023/08/30 11:14:11;;;;;;;3.25;2.80;;;;;;;-145.63;41.63;38670.28;5024238;28;20072;-64